»·PEaware :: UAL465 KLAS-KABQ

UAL465 :: KLAS-KABQ

FLIGHT INFORMATION

Flight Status: Arrived
Operator:
United Airlines
More flights by this operator :: More flights under this callsign
Pilot: Matt G. (13672)
Aircraft: AIRBUS A320
(A320)
More flights by this aircraft type
Origin: KLAS McCarran Intl
United States
Destination: KABQ Albuquerque Intl Sunport
United States
More flights between these airports :: More routes between these airports
Route: COWBY8 GUP CURLY3
File this flight plan on PilotEdge
Remarks: Will request ILS 8
Altitude:
(Current/Filed)
35,000ft
Speed:
(Current/Filed)
432kts
Departed: 29-Dec-17 11:33 AM
Arrived: 29-Dec-17 12:39 PM
Distance/Time
Traveled:
422nm/1:06
Distance/Time
To Go:
Arrived

Flight Plot

Page will automatically refresh every two minutes.

Flight plan parsing failed; only flown route is shown


Map Options




Map Legend


Flown Route
Filed Route
Departure Airport
Arrival Airport
Navaid (VOR, NDB)
Fix

Horizontal Profiles

Position Reports

Time Latitude Longitude Heading Altitude Ground
Speed
29-Dec-17 11:15 36.082198 -115.140014 46 2120ft 0kts
29-Dec-17 11:16 36.082198 -115.140014 46 2120ft 0kts
29-Dec-17 11:17 36.082198 -115.140014 46 2120ft 0kts
29-Dec-17 11:18 36.082198 -115.140014 46 2120ft 0kts
29-Dec-17 11:19 36.082198 -115.140014 46 2120ft 0kts
29-Dec-17 11:20 36.082198 -115.140014 46 2120ft 0kts
29-Dec-17 11:21 36.082198 -115.140014 46 2120ft 0kts
29-Dec-17 11:22 36.082198 -115.140014 46 2120ft 0kts
29-Dec-17 11:23 36.082198 -115.140014 46 2120ft 0kts
29-Dec-17 11:24 36.082198 -115.140014 46 2120ft 0kts
29-Dec-17 11:25 36.082198 -115.140014 46 2120ft 0kts
29-Dec-17 11:26 36.082198 -115.140014 46 2120ft 0kts
29-Dec-17 11:27 36.082198 -115.140014 46 2120ft 0kts
29-Dec-17 11:28 36.082198 -115.140014 46 2120ft 0kts
29-Dec-17 11:29 36.082197 -115.140014 46 2120ft 0kts
29-Dec-17 11:30 36.081861 -115.140286 40 2120ft 2kts
29-Dec-17 11:31 36.081534 -115.140882 86 2120ft 2kts
29-Dec-17 11:32 36.081578 -115.141198 114 2120ft 0kts
29-Dec-17 11:33 36.081578 -115.141198 114 2120ft 0kts
29-Dec-17 11:34 36.079993 -115.141562 182 2120ft 27kts
29-Dec-17 11:35 36.078306 -115.140713 89 2120ft 21kts
29-Dec-17 11:36 36.078302 -115.131774 89 2120ft 25kts
29-Dec-17 11:37 36.077779 -115.121918 132 2120ft 17kts
29-Dec-17 11:38 36.077319 -115.121402 151 2120ft 10kts
29-Dec-17 11:39 36.076586 -115.145060 270 2450ft 161kts
29-Dec-17 11:40 36.076557 -115.206727 270 5005ft 202kts
29-Dec-17 11:41 36.045652 -115.267962 201 6853ft 265kts
29-Dec-17 11:42 35.972859 -115.298931 183 7067ft 280kts
29-Dec-17 11:43 35.897285 -115.273781 163 9213ft 289kts
29-Dec-17 11:44 35.850241 -115.197192 106 11398ft 326kts
29-Dec-17 11:45 35.823525 -115.079962 97 12676ft 379kts
29-Dec-17 11:46 35.832816 -114.948309 82 14678ft 393kts
29-Dec-17 11:47 35.845173 -114.812878 82 16553ft 404kts
29-Dec-17 11:48 35.857652 -114.673377 81 18248ft 415kts
29-Dec-17 11:49 35.870253 -114.530480 81 19784ft 425kts
29-Dec-17 11:50 35.883037 -114.383466 81 21201ft 435kts
29-Dec-17 11:51 35.894803 -114.246285 82 22383ft 443kts
29-Dec-17 11:52 35.905195 -114.123515 82 23328ft 450kts
29-Dec-17 11:53 35.918038 -113.969721 82 23494ft 453kts
29-Dec-17 11:54 35.909789 -113.814051 99 24572ft 465kts
29-Dec-17 11:55 35.885907 -113.662517 98 27123ft 434kts
29-Dec-17 11:56 35.864008 -113.524246 98 30186ft 388kts
29-Dec-17 11:57 35.843113 -113.393396 98 31376ft 394kts
29-Dec-17 11:58 35.824601 -113.278382 98 32249ft 401kts
29-Dec-17 11:59 35.802692 -113.143054 98 33171ft 407kts
29-Dec-17 12:00 35.780248 -113.005446 98 34031ft 413kts
29-Dec-17 12:01 35.757403 -112.866416 97 34854ft 417kts
29-Dec-17 12:02 35.734233 -112.726468 97 35536ft 422kts
29-Dec-17 12:03 35.710026 -112.581440 97 35561ft 444kts
29-Dec-17 12:04 35.684495 -112.429728 98 35554ft 464kts
29-Dec-17 12:05 35.658463 -112.276280 98 35546ft 477kts
29-Dec-17 12:06 35.631160 -112.116575 98 35541ft 477kts
29-Dec-17 12:07 35.603779 -111.957822 98 35538ft 476kts
29-Dec-17 12:08 35.590219 -111.797316 88 35539ft 472kts
29-Dec-17 12:09 35.585988 -111.636703 88 35547ft 472kts
29-Dec-17 12:10 35.581290 -111.476139 88 35549ft 472kts
29-Dec-17 12:11 35.576627 -111.322965 88 35517ft 472kts
29-Dec-17 12:12 35.571620 -111.164365 88 35501ft 471kts
29-Dec-17 12:13 35.566336 -111.003644 88 35494ft 472kts
29-Dec-17 12:14 35.560850 -110.843338 88 35495ft 472kts
29-Dec-17 12:15 35.555109 -110.681813 88 35504ft 473kts
29-Dec-17 12:16 35.549156 -110.520437 88 35509ft 473kts
29-Dec-17 12:17 35.543001 -110.359396 88 35507ft 473kts
29-Dec-17 12:18 35.536779 -110.202056 89 35499ft 473kts
29-Dec-17 12:19 35.530214 -110.041390 89 35496ft 473kts
29-Dec-17 12:20 35.523407 -109.880069 89 35497ft 473kts
29-Dec-17 12:21 35.516400 -109.719119 89 35501ft 474kts
29-Dec-17 12:22 35.509286 -109.560535 89 35503ft 474kts
29-Dec-17 12:23 35.501821 -109.398921 89 35505ft 474kts
29-Dec-17 12:24 35.494337 -109.241406 89 35499ft 474kts
29-Dec-17 12:25 35.486451 -109.079921 89 35486ft 474kts
29-Dec-17 12:26 35.478387 -108.919227 90 35483ft 476kts
29-Dec-17 12:27 35.473060 -108.757662 88 35507ft 477kts
29-Dec-17 12:28 35.468748 -108.597200 88 35519ft 477kts
29-Dec-17 12:29 35.464174 -108.434914 88 35316ft 477kts
29-Dec-17 12:30 35.459728 -108.283992 88 34544ft 476kts
29-Dec-17 12:31 35.454961 -108.129057 89 31802ft 486kts
29-Dec-17 12:32 35.449647 -107.963560 89 29146ft 485kts
29-Dec-17 12:33 35.444124 -107.798069 89 26204ft 490kts
29-Dec-17 12:34 35.438356 -107.632275 89 24443ft 483kts
29-Dec-17 12:35 35.432445 -107.468598 89 23733ft 486kts
29-Dec-17 12:36 35.426295 -107.304973 90 20918ft 479kts
29-Dec-17 12:37 35.419998 -107.146175 92 17417ft 451kts
29-Dec-17 12:38 35.351222 -107.041781 151 15213ft 400kts
29-Dec-17 12:39 35.255894 -106.972323 150 14327ft 391kts
29-Dec-17 12:40 35.180056 -106.916426 150 11625ft 366kts
29-Dec-17 12:41 35.081980 -106.855696 159 9165ft 317kts
29-Dec-17 12:42 35.031597 -106.803032 96 8095ft 289kts
29-Dec-17 12:43 35.038091 -106.706565 64 7387ft 224kts
29-Dec-17 12:44 35.044142 -106.640821 83 5875ft 181kts
29-Dec-17 12:45 35.044212 -106.601111 90 5318ft 38kts
29-Dec-17 12:46 35.045591 -106.599798 290 5318ft 9kts

Navigation Log

Ident Type
Flight plan parsing failed, navigation log unavailable